Snow/Ice From: 16-12-2017 16:00 Until: 17-12-2017 16:00 warning for: Snow/Ice Level: Yellow info button

Although rather usual in this region, locally or potentially dangerous phenomena are expected. (such as local winds, summer thunderstorms, rising streams or high waves) Be aware and pay attention to the latest weather updates, especially if you carry out activities exposed to weather or close to a stream or shoreline. 


Meteo18 Weather Cam more information Meteo18 Weather Cam


Thunder radar more information blitzortung!


warning for Snow/Ice more information rain snow radar


Visit our other weather sites:

Template documentation
and downloads

And another site



Weather Underground History page Text

Daily Summary for June 29, 2017 Units:  English    Metric   Both
« Previous Day
Next Day »
Daily Weekly Monthly Yearly Custom
  High: Low: Average:
Temperature: 68.2 °F 56.1 °F 60.1 °F
Dew Point: 58.1 °F 51.6 °F 54.7 °F
Humidity: 95 % 57 % 83 %
Wind Speed: 19 mph 0 mph 5.7 mph
Wind Gust: 28 mph - -
Wind:- - SW
Pressure: 29.7 in 29.5 in -
Precipitation: 0.24 in    
Historical Graphs
 
 
Tabular Data for June 29, 2017
Time Temperature Dew Point Pressure Wind Wind Speed Wind Gust Humidity Rainfall Rate (Hourly)
00:02 59.4 °F 55.2 °F 29.6 in SW 3 mph 4 mph 86 % 0 in
00:12 59 °F 55.2 °F 29.6 in SSW 3 mph 4 mph 87 % 0 in
00:17 58.8 °F 55 °F 29.6 in SSW 3 mph 4 mph 87 % 0 in
00:22 58.8 °F 55 °F 29.6 in SSW 3 mph 4 mph 87 % 0 in
00:27 58.8 °F 55 °F 29.6 in SW 4 mph 5 mph 87 % 0 in
00:32 59 °F 55.2 °F 29.6 in SSW 3 mph 5 mph 87 % 0 in
00:42 59.2 °F 55.6 °F 29.6 in SW 7 mph 7 mph 88 % 0 in
00:52 59.9 °F 55.9 °F 29.6 in SSW 3 mph 9 mph 87 % 0 in
01:02 60.4 °F 55.9 °F 29.6 in SW 6 mph 9 mph 85 % 0 in
01:07 60.3 °F 55.8 °F 29.6 in SSW 3 mph 9 mph 85 % 0 in
01:12 59.9 °F 55.8 °F 29.6 in SW 5 mph 9 mph 86 % 0 in
01:17 59.5 °F 55.6 °F 29.6 in SW 4 mph 8 mph 87 % 0 in
01:22 59.4 °F 55.4 °F 29.6 in WSW 5 mph 6 mph 87 % 0 in
01:32 59.9 °F 55.8 °F 29.6 in SW 7 mph 8 mph 86 % 0 in
01:37 60.3 °F 55.8 °F 29.6 in SSE 4 mph 10 mph 85 % 0 in
01:42 60.3 °F 55.8 °F 29.6 in SSW 4 mph 10 mph 85 % 0 in
01:47 60.3 °F 55.8 °F 29.5 in SSW 4 mph 12 mph 85 % 0 in
01:52 60.1 °F 55.6 °F 29.5 in SSW 2 mph 12 mph 85 % 0 in
01:57 59.5 °F 55.4 °F 29.5 in SW 3 mph 12 mph 86 % 0 in
02:02 59.2 °F 55.4 °F 29.5 in SSW 3 mph 10 mph 87 % 0 in
02:07 58.8 °F 55.2 °F 29.5 in SSW 2 mph 6 mph 88 % 0 in
02:12 58.6 °F 55 °F 29.5 in SW 2 mph 6 mph 88 % 0 in
02:17 58.3 °F 55 °F 29.5 in SW 3 mph 4 mph 89 % 0 in
02:22 58.1 °F 55.2 °F 29.5 in SSW 3 mph 4 mph 90 % 0 in
02:32 57.9 °F 55 °F 29.5 in SSW 3 mph 7 mph 90 % 0 in
02:42 57.9 °F 55 °F 29.5 in SW 3 mph 7 mph 90 % 0 in
02:52 57.6 °F 54.7 °F 29.5 in SW 6 mph 6 mph 90 % 0 in
02:57 57.4 °F 54.9 °F 29.5 in SW 5 mph 6 mph 91 % 0 in
03:02 57 °F 54.5 °F 29.5 in SW 3 mph 7 mph 91 % 0 in
03:07 57.2 °F 54.9 °F 29.5 in SSW 6 mph 7 mph 92 % 0 in
03:12 57.4 °F 55 °F 29.5 in WSW 4 mph 7 mph 92 % 0 in
03:17 57.6 °F 55 °F 29.5 in SSW 8 mph 11 mph 91 % 0 in
03:22 57.6 °F 55 °F 29.5 in SW 6 mph 11 mph 91 % 0 in
03:32 57.4 °F 54.9 °F 29.5 in West 2 mph 10 mph 91 % 0 in
03:42 57.4 °F 55 °F 29.5 in SW 3 mph 7 mph 92 % 0 in
03:47 57.7 °F 55.4 °F 29.5 in SSW 3 mph 7 mph 92 % 0 in
03:52 57.9 °F 55.6 °F 29.5 in South 4 mph 7 mph 92 % 0 in
03:57 58.3 °F 55.6 °F 29.5 in SW 6 mph 9 mph 91 % 0 in
04:02 58.5 °F 55.8 °F 29.5 in SW 6 mph 9 mph 91 % 0 in
04:12 58.3 °F 55.9 °F 29.5 in SSW 7 mph 9 mph 92 % 0 in
04:17 58.1 °F 55.8 °F 29.5 in SW 4 mph 10 mph 92 % 0.01 in
04:22 57.9 °F 55.9 °F 29.5 in SSW 1 mph 10 mph 93 % 0.01 in
04:27 57.9 °F 55.9 °F 29.5 in SW 2 mph 10 mph 93 % 0.01 in
04:32 57.7 °F 55.8 °F 29.5 in SSW 3 mph 9 mph 93 % 0.01 in
04:42 57.4 °F 55.4 °F 29.5 in SW 5 mph 8 mph 93 % 0.01 in
04:47 57.4 °F 55.6 °F 29.5 in SSW 2 mph 8 mph 94 % 0.01 in
04:52 57.4 °F 55.6 °F 29.5 in SSW 2 mph 7 mph 94 % 0.01 in
04:57 57.4 °F 55.6 °F 29.5 in SSW 2 mph 7 mph 94 % 0.01 in
05:02 57.4 °F 55.6 °F 29.5 in SW 2 mph 5 mph 94 % 0.01 in
05:12 57 °F 55.2 °F 29.5 in SW 1 mph 5 mph 94 % 0.01 in
05:17 57 °F 55.2 °F 29.5 in Calm   5 mph 94 % 0.01 in
05:22 56.8 °F 55.2 °F 29.5 in Calm   4 mph 94 % 0 in
05:27 56.7 °F 55 °F 29.5 in Calm   4 mph 94 % 0 in
05:32 56.5 °F 54.9 °F 29.5 in SW 1 mph 2 mph 94 % 0 in
05:37 56.3 °F 54.7 °F 29.5 in WSW 1 mph 2 mph 94 % 0 in
05:42 56.1 °F 54.5 °F 29.5 in SSW 2 mph 2 mph 94 % 0 in
05:47 56.3 °F 54.7 °F 29.5 in SSW 2 mph 2 mph 94 % 0 in
05:52 56.3 °F 54.9 °F 29.5 in SW 2 mph 4 mph 95 % 0 in
05:57 56.5 °F 55 °F 29.5 in SW 4 mph 4 mph 95 % 0 in
06:02 56.7 °F 55.2 °F 29.5 in SW 2 mph 6 mph 95 % 0 in
06:07 56.8 °F 55.4 °F 29.5 in SSW 2 mph 6 mph 95 % 0 in
06:12 57 °F 55.2 °F 29.5 in SSW 2 mph 6 mph 94 % 0 in
06:17 57.2 °F 55.4 °F 29.5 in SW 2 mph 6 mph 94 % 0 in
06:22 57.4 °F 55.6 °F 29.5 in SW 1 mph 5 mph 94 % 0 in
06:32 57.6 °F 55.8 °F 29.5 in South 2 mph 5 mph 94 % 0 in
06:37 57.6 °F 55.8 °F 29.5 in South 1 mph 4 mph 94 % 0 in
06:42 57.6 °F 55.8 °F 29.5 in WSW 5 mph 5 mph 94 % 0 in
06:47 57.7 °F 55.9 °F 29.5 in WSW 5 mph 5 mph 94 % 0 in
06:52 57.7 °F 55.9 °F 29.5 in SSW 2 mph 6 mph 94 % 0 in
07:02 57.9 °F 56.1 °F 29.6 in WNW 5 mph 6 mph 94 % 0 in
07:12 58.1 °F 56.3 °F 29.6 in West 3 mph 9 mph 94 % 0 in
07:17 58.1 °F 56.3 °F 29.6 in West 2 mph 9 mph 94 % 0 in
07:22 58.3 °F 56.5 °F 29.6 in WSW 2 mph 9 mph 94 % 0 in
07:32 58.3 °F 56.3 °F 29.6 in West 2 mph 6 mph 93 % 0 in
07:37 58.5 °F 56.5 °F 29.6 in WNW 5 mph 6 mph 93 % 0 in
07:42 58.5 °F 55.8 °F 29.6 in WNW 5 mph 8 mph 91 % 0 in
07:47 58.5 °F 55.6 °F 29.6 in West 4 mph 8 mph 90 % 0 in
07:52 58.5 °F 55.6 °F 29.6 in WNW 5 mph 11 mph 90 % 0 in
07:57 58.5 °F 55.6 °F 29.6 in West 4 mph 11 mph 90 % 0 in
08:02 58.5 °F 55.6 °F 29.6 in West 5 mph 11 mph 90 % 0 in
08:12 58.5 °F 54.9 °F 29.6 in NW 8 mph 13 mph 88 % 0 in
08:17 58.6 °F 55.4 °F 29.6 in WSW 4 mph 13 mph 89 % 0 in
08:27 58.3 °F 54.5 °F 29.6 in West 4 mph 13 mph 87 % 0 in
08:32 58.3 °F 54.1 °F 29.6 in West 8 mph 11 mph 86 % 0 in
08:37 58.3 °F 53.4 °F 29.6 in West 2 mph 11 mph 84 % 0 in
08:42 58.3 °F 53.4 °F 29.6 in WNW 4 mph 10 mph 84 % 0 in
08:47 58.3 °F 53.8 °F 29.6 in West 2 mph 10 mph 85 % 0 in
08:52 58.3 °F 53.8 °F 29.6 in SSW 1 mph 13 mph 85 % 0 in
08:57 58.3 °F 53.8 °F 29.6 in West 5 mph 13 mph 85 % 0 in
09:02 58.3 °F 54.1 °F 29.6 in WSW 3 mph 8 mph 86 % 0 in
09:12 57.9 °F 53.8 °F 29.6 in West 2 mph 11 mph 86 % 0 in
09:17 58.1 °F 54 °F 29.6 in WSW 4 mph 11 mph 86 % 0 in
09:22 58.3 °F 54.1 °F 29.6 in West 8 mph 11 mph 86 % 0 in
09:32 59.4 °F 54.9 °F 29.6 in WSW 6 mph 9 mph 85 % 0 in
09:37 59.9 °F 55 °F 29.6 in WSW 6 mph 9 mph 84 % 0 in
09:42 60.3 °F 53.8 °F 29.6 in WSW 4 mph 12 mph 79 % 0 in
09:47 60.6 °F 54.7 °F 29.6 in SW 9 mph 12 mph 81 % 0 in
09:52 61.2 °F 54.7 °F 29.6 in West 3 mph 14 mph 79 % 0 in
09:57 61.5 °F 52.7 °F 29.6 in SW 7 mph 14 mph 73 % 0 in
10:02 61.2 °F 52.9 °F 29.6 in WSW 13 mph 13 mph 74 % 0 in
10:07 61 °F 52.3 °F 29.6 in SW 4 mph 13 mph 73 % 0 in
10:12 61.3 °F 53.1 °F 29.6 in WNW 13 mph 17 mph 74 % 0 in
10:17 61.5 °F 53.6 °F 29.6 in SW 9 mph 17 mph 75 % 0 in
10:22 61.7 °F 52.9 °F 29.6 in WNW 2 mph 19 mph 73 % 0.01 in
10:32 61.9 °F 52.7 °F 29.6 in West 9 mph 17 mph 72 % 0.01 in
10:37 62.2 °F 52.3 °F 29.6 in West 11 mph 17 mph 70 % 0.01 in
10:42 62.4 °F 52.5 °F 29.6 in West 7 mph 18 mph 70 % 0.01 in
10:52 62.8 °F 53.6 °F 29.6 in SW 8 mph 18 mph 72 % 0.01 in
10:57 62.6 °F 53.4 °F 29.6 in WSW 8 mph 18 mph 72 % 0.01 in
11:02 62.8 °F 53.6 °F 29.6 in West 4 mph 15 mph 72 % 0.01 in
11:12 62.1 °F 53.2 °F 29.6 in West 9 mph 12 mph 73 % 0.01 in
11:17 62.2 °F 53.4 °F 29.6 in WSW 4 mph 12 mph 73 % 0.01 in
11:22 62.4 °F 53.6 °F 29.6 in WSW 7 mph 16 mph 73 % 0 in
11:27 62.8 °F 53.6 °F 29.6 in West 7 mph 16 mph 72 % 0 in
11:32 62.8 °F 53.6 °F 29.6 in West 9 mph 12 mph 72 % 0 in
11:42 62.8 °F 54 °F 29.6 in SW 5 mph 13 mph 73 % 0 in
11:47 63.3 °F 54.5 °F 29.6 in West 3 mph 13 mph 73 % 0 in
11:52 63.3 °F 53.4 °F 29.6 in West 8 mph 12 mph 70 % 0 in
11:57 63 °F 53.4 °F 29.6 in West 8 mph 12 mph 71 % 0 in
12:02 62.8 °F 53.2 °F 29.6 in SW 7 mph 17 mph 71 % 0 in
12:07 62.8 °F 53.2 °F 29.6 in West 8 mph 17 mph 71 % 0 in
12:12 63 °F 54.5 °F 29.6 in SSW 8 mph 19 mph 74 % 0 in
12:17 63.5 °F 55.8 °F 29.6 in SSW 8 mph 19 mph 76 % 0 in
12:22 63.7 °F 55.2 °F 29.6 in SW 10 mph 19 mph 74 % 0 in
12:32 63.9 °F 54.3 °F 29.6 in WNW 7 mph 19 mph 71 % 0 in
12:37 63.9 °F 54.3 °F 29.6 in WSW 8 mph 20 mph 71 % 0 in
12:42 63.9 °F 53.4 °F 29.6 in WSW 11 mph 20 mph 69 % 0 in
12:47 65.1 °F 54.7 °F 29.6 in WSW 17 mph 20 mph 69 % 0 in
12:52 64.2 °F 53.4 °F 29.6 in WSW 16 mph 20 mph 68 % 0 in
12:57 62.4 °F 54.7 °F 29.6 in WSW 4 mph 20 mph 76 % 0 in
13:02 61.9 °F 54.9 °F 29.6 in West 5 mph 20 mph 78 % 0 in
13:12 63.1 °F 55.8 °F 29.6 in WSW 8 mph 18 mph 77 % 0 in
13:17 63.5 °F 54.7 °F 29.6 in SW 8 mph 18 mph 73 % 0 in
13:22 61.3 °F 54.5 °F 29.6 in WSW 15 mph 24 mph 78 % 0 in
13:27 58.6 °F 53.8 °F 29.6 in SW 12 mph 24 mph 84 % 0 in
13:37 56.5 °F 52.9 °F 29.6 in WSW 6 mph 25 mph 88 % 0.09 in
13:47 56.5 °F 53.6 °F 29.6 in SW 8 mph 17 mph 90 % 0.13 in
13:52 56.8 °F 54 °F 29.6 in SW 8 mph 16 mph 90 % 0.13 in
13:57 57.4 °F 54.5 °F 29.6 in SW 6 mph 16 mph 90 % 0.13 in
14:02 57.9 °F 55 °F 29.6 in SW 4 mph 13 mph 90 % 0.13 in
14:12 59.4 °F 56.5 °F 29.6 in SW 2 mph 9 mph 90 % 0.13 in
14:17 60.8 °F 58.1 °F 29.6 in WNW 2 mph 9 mph 91 % 0.13 in
14:22 60.6 °F 56.5 °F 29.6 in WSW 3 mph 8 mph 86 % 0.13 in
14:32 61.7 °F 58.1 °F 29.6 in WNW 6 mph 7 mph 88 % 0.04 in
14:42 62.8 °F 56.8 °F 29.6 in West 5 mph 8 mph 81 % 0.01 in
14:52 63.7 °F 55.6 °F 29.6 in South 11 mph 12 mph 75 % 0 in
14:57 64.4 °F 56.3 °F 29.6 in SW 14 mph 16 mph 75 % 0 in
15:02 64.9 °F 56.5 °F 29.6 in West 4 mph 16 mph 74 % 0 in
15:12 63.9 °F 56.5 °F 29.6 in West 7 mph 17 mph 77 % 0.01 in
15:17 63.9 °F 56.8 °F 29.6 in SW 5 mph 17 mph 78 % 0.01 in
15:22 64 °F 57 °F 29.6 in SW 7 mph 17 mph 78 % 0.01 in
15:32 64.4 °F 54.9 °F 29.6 in SW 11 mph 12 mph 71 % 0.01 in
15:42 65.3 °F 54.9 °F 29.6 in SSW 9 mph 17 mph 69 % 0.01 in
15:47 65.5 °F 54.3 °F 29.6 in SW 8 mph 21 mph 67 % 0.01 in
15:52 66 °F 54 °F 29.6 in SW 7 mph 21 mph 65 % 0.01 in
15:57 66.9 °F 53.4 °F 29.6 in SW 12 mph 21 mph 62 % 0.01 in
16:07 67.3 °F 52.5 °F 29.6 in SSW 14 mph 24 mph 59 % 0 in
16:12 67.3 °F 53.4 °F 29.6 in WSW 12 mph 24 mph 61 % 0 in
16:17 68.2 °F 54.1 °F 29.6 in WSW 15 mph 22 mph 61 % 0 in
16:37 67.5 °F 51.6 °F 29.6 in West 3 mph 24 mph 57 % 0 in
16:42 66.9 °F 51.6 °F 29.6 in South 11 mph 24 mph 58 % 0 in
16:52 64 °F 54.5 °F 29.6 in West 10 mph 26 mph 71 % 0 in
17:02 62.4 °F 54.7 °F 29.6 in SW 11 mph 22 mph 76 % 0 in
17:12 63.3 °F 55.6 °F 29.6 in West 5 mph 15 mph 76 % 0.01 in
17:17 64 °F 55.2 °F 29.6 in SW 8 mph 14 mph 73 % 0.01 in
17:22 64.4 °F 54.3 °F 29.6 in WSW 6 mph 14 mph 70 % 0.01 in
17:32 64.2 °F 55 °F 29.6 in WSW 7 mph 15 mph 72 % 0.01 in
17:42 61.9 °F 54.3 °F 29.6 in WSW 5 mph 15 mph 76 % 0.01 in
17:47 62.1 °F 55.4 °F 29.6 in WSW 8 mph 27 mph 79 % 0.04 in
17:57 63 °F 55.9 °F 29.6 in SW 3 mph 21 mph 78 % 0.04 in
18:02 63.7 °F 56.7 °F 29.6 in West 5 mph 17 mph 78 % 0.04 in
18:12 63.3 °F 55.9 °F 29.6 in WSW 7 mph 17 mph 77 % 0.03 in
18:17 62.8 °F 55 °F 29.6 in SW 13 mph 13 mph 76 % 0.03 in
18:22 62.1 °F 55.4 °F 29.6 in WSW 10 mph 13 mph 79 % 0.03 in
18:27 61.3 °F 55 °F 29.6 in SW 7 mph 16 mph 80 % 0.06 in
18:32 61.7 °F 56.1 °F 29.6 in SW 9 mph 16 mph 82 % 0.06 in
18:37 62.1 °F 55.8 °F 29.6 in SW 9 mph 15 mph 80 % 0.05 in
18:42 62.1 °F 55.4 °F 29.6 in SW 10 mph 15 mph 79 % 0.05 in
18:52 63.3 °F 55.6 °F 29.6 in SW 11 mph 14 mph 76 % 0.03 in
18:57 63.9 °F 55 °F 29.6 in WSW 15 mph 19 mph 73 % 0.03 in
19:02 63.7 °F 54.5 °F 29.6 in SW 10 mph 19 mph 72 % 0.03 in
19:12 62.4 °F 55 °F 29.6 in South 8 mph 23 mph 77 % 0.03 in
19:17 61.9 °F 54.9 °F 29.6 in WSW 7 mph 23 mph 78 % 0 in
19:22 61.7 °F 54.5 °F 29.6 in SW 8 mph 23 mph 77 % 0 in
19:27 61.7 °F 54.9 °F 29.6 in South 5 mph 17 mph 78 % 0 in
19:32 61.5 °F 54.7 °F 29.6 in SW 7 mph 17 mph 78 % 0 in
19:37 61.9 °F 54.7 °F 29.6 in West 11 mph 17 mph 77 % 0 in
19:42 61.9 °F 54.7 °F 29.6 in SW 19 mph 19 mph 77 % 0 in
19:47 60.8 °F 53.2 °F 29.6 in South 7 mph 28 mph 76 % 0 in
19:52 60.1 °F 53.2 °F 29.6 in WSW 13 mph 28 mph 78 % 0 in
19:57 59.7 °F 53.2 °F 29.6 in SW 6 mph 28 mph 79 % 0 in
20:02 60.1 °F 53.2 °F 29.7 in SW 9 mph 28 mph 78 % 0 in
20:12 60.4 °F 53.6 °F 29.7 in West 6 mph 18 mph 78 % 0 in
20:17 60.6 °F 54.1 °F 29.7 in WSW 5 mph 15 mph 79 % 0 in
20:22 60.8 °F 54.3 °F 29.7 in WSW 8 mph 18 mph 79 % 0.01 in
20:27 60.6 °F 54.1 °F 29.7 in SSW 6 mph 18 mph 79 % 0.01 in
20:32 60.3 °F 54.1 °F 29.7 in WSW 6 mph 18 mph 80 % 0.01 in
20:42 60.3 °F 54.1 °F 29.7 in SW 5 mph 16 mph 80 % 0.01 in
20:47 60.1 °F 54 °F 29.7 in West 3 mph 14 mph 80 % 0.01 in
20:52 59.9 °F 54.1 °F 29.7 in SW 4 mph 14 mph 81 % 0.01 in
20:57 59.9 °F 54.1 °F 29.7 in WSW 5 mph 14 mph 81 % 0.01 in
21:02 59.7 °F 54.1 °F 29.7 in SSW 5 mph 13 mph 82 % 0.01 in
21:12 59.2 °F 54.3 °F 29.7 in SSW 4 mph 13 mph 84 % 0.01 in
21:17 58.6 °F 54.1 °F 29.7 in SW 3 mph 12 mph 85 % 0.01 in
21:22 58.5 °F 54.3 °F 29.7 in SSW 2 mph 10 mph 86 % 0 in
21:32 57.9 °F 54.3 °F 29.7 in SW 2 mph 10 mph 88 % 0 in
21:42 57.7 °F 54.5 °F 29.7 in SSW 2 mph 6 mph 89 % 0 in
21:47 57.7 °F 54.5 °F 29.7 in South 2 mph 5 mph 89 % 0 in
21:52 57.7 °F 54.5 °F 29.7 in SSW 4 mph 5 mph 89 % 0 in
21:57 57.7 °F 54 °F 29.7 in SSW 3 mph 7 mph 87 % 0 in
22:02 57.9 °F 53.8 °F 29.7 in SSW 3 mph 9 mph 86 % 0 in
22:12 58.3 °F 53.1 °F 29.7 in SSW 6 mph 9 mph 83 % 0 in
22:17 58.3 °F 53.1 °F 29.7 in SSW 4 mph 10 mph 83 % 0 in
22:22 58.3 °F 53.1 °F 29.7 in SSW 6 mph 10 mph 83 % 0 in
22:32 58.3 °F 53.1 °F 29.7 in SSW 4 mph 11 mph 83 % 0 in
22:37 58.3 °F 53.1 °F 29.7 in SW 5 mph 11 mph 83 % 0 in
22:42 58.1 °F 53.2 °F 29.7 in SW 7 mph 11 mph 84 % 0 in
22:47 58.3 °F 53.1 °F 29.7 in SSW 7 mph 10 mph 83 % 0 in
22:52 58.3 °F 53.1 °F 29.7 in SW 7 mph 10 mph 83 % 0 in
22:57 58.3 °F 53.1 °F 29.7 in SW 8 mph 11 mph 83 % 0 in
23:02 58.3 °F 53.1 °F 29.7 in SW 4 mph 11 mph 83 % 0 in
23:12 57.6 °F 52.5 °F 29.7 in SSW 4 mph 11 mph 83 % 0 in
23:17 57.6 °F 52.5 °F 29.7 in SW 5 mph 10 mph 83 % 0 in
23:22 57.4 °F 52.5 °F 29.7 in SSW 4 mph 11 mph 84 % 0 in
23:32 57.2 °F 52.3 °F 29.7 in SW 6 mph 11 mph 84 % 0 in
23:42 57.7 °F 52.7 °F 29.7 in SW 8 mph 10 mph 83 % 0 in
23:52 57.9 °F 52.5 °F 29.7 in South 5 mph 17 mph 82 % 0 in
23:57 57.7 °F 52.7 °F 29.7 in SSW 7 mph 17 mph 83 % 0 in
Meteo18
Compliments of Weather Underground - 4 mb

Script developed by  Jim McMurry - jmcmurry@mwt.net Adapted for the template by  Wim van der Kuil - Leuven-Template.eu

You find our weather info also at:

European Weather Network

Weather Underground

Equipment we use:

Weather-station
Davis Vue

Weather-program
Meteohub

Weather-server
Raspberry PI 2 B+

Provider
1 and 1

Davis Vue

Meteohub

Raspberry PI 2 B+

1 and 1